Terminal Aerodrome Forecast
Issued by NWS Jackson, KY

Home | Current Version | Previous Version | Text Only | Print | Product List | Glossary On
Versions: 1 2 3 4 5 6 7 8 9 10 11 12
544
FTUS43 KJKL 261125
TAFJKL
TAF
KJKL 261125Z 2612/2712 00000KT P6SM SKC
     FM261500 24005KT P6SM VCTS SCT040CB BKN100
     FM261900 28007KT P6SM VCTS BKN040CB OVC100
     FM270000 30004KT P6SM SCT040 BKN100
     FM270200 VRB03KT P6SM SCT250=

USA.gov is the U.S. government's official web portal to all federal, state and local government web resources and services.